Lynnville, Iowa
Current Conditions -  °F | °C
As of 9:55 AM on Sunday 23 Nov 2014 (Local Time) from KGGI Reporting Station
Light Rain Light Rain  
Wind Chill: 46°   Ceiling: 200
Heat Index: 49°   Visibility: 4mi
Dew Point: 48°   Wind: 9mph
Humidity: 96%   Direction: 160°SSE
Pressure: 29.52"   Gusts: NA
Location:  41.58°N, 92.78°W
Report Text: KGGI 231555Z AUTO 16008KT 4SM -RA OVC002 10/09 A2952 RMK AO2 P0004 T00970091
Loading
Personal Weather Stations






























Interactive Weather Map New forecast layout! Learn more

10-Day Weather Forecast

Advertisements
Track Severe Weather on mobile